Time;durP1;ratioP1;P1;durP2;ratioP2;P2;SDS_P1;SDS_P2;PMS_P1;PMS_P2;Temp;Humidity;BMP_temperature;BMP_pressure;BME280_temperature;BME280_humidity;BME280_pressure;Samples;Min_cycle;Max_cycle;Signal;HPM_P1;HPM_P2
2021/04/29 05:01:27;;;;;;;1.33;1.00;;;12.90;77.90;;;;;;5669977;22;20252;-91
2021/04/29 05:04:04;;;;;;;1.52;1.00;;;13.00;76.70;;;;;;5086405;28;20311;-93
2021/04/29 05:17:23;;;;;;;3.45;1.05;;;13.40;76.10;;;;;;5082318;28;20181;-91
2021/04/29 05:26:38;;;;;;;2.75;1.08;;;13.50;74.30;;;;;;5075194;28;20189;-89
2021/04/29 05:29:27;;;;;;;3.60;1.90;;;13.70;70.60;;;;;;5078894;28;20245;-86
2021/04/29 05:31:53;;;;;;;9.73;1.50;;;13.70;70.70;;;;;;5082843;28;20197;-89
2021/04/29 05:34:20;;;;;;;1.48;0.93;;;13.70;70.00;;;;;;5081871;28;20228;-91
2021/04/29 05:43:33;;;;;;;2.05;1.20;;;13.60;69.60;;;;;;5079625;28;20180;-87
2021/04/29 05:45:59;;;;;;;4.15;1.35;;;13.80;66.60;;;;;;5072513;28;20211;-88
2021/04/29 05:48:25;;;;;;;1.75;1.23;;;13.90;65.50;;;;;;5080301;28;20683;-88
2021/04/29 05:51:01;;;;;;;4.82;1.58;;;14.20;64.10;;;;;;5068366;28;20217;-88
2021/04/29 05:53:27;;;;;;;3.55;1.00;;;14.50;61.80;;;;;;5069519;28;20217;-88
2021/04/29 05:55:54;;;;;;;2.17;1.30;;;14.80;59.20;;;;;;5062486;28;20194;-88
2021/04/29 05:58:20;;;;;;;3.38;1.20;;;15.10;56.30;;;;;;5066605;28;20232;-92
2021/04/29 06:00:46;;;;;;;3.35;1.30;;;15.20;55.40;;;;;;5081233;28;20209;-90
2021/04/29 06:03:14;;;;;;;4.78;1.35;;;15.10;54.50;;;;;;5083229;28;20224;-91
2021/04/29 06:05:40;;;;;;;5.20;1.45;;;15.10;54.70;;;;;;5079740;28;20213;-92
2021/04/29 06:08:08;;;;;;;7.80;1.08;;;15.20;52.50;;;;;;5090015;28;20224;-90
2021/04/29 06:10:35;;;;;;;4.72;1.60;;;15.10;52.20;;;;;;5090574;28;20273;-91
2021/04/29 06:13:10;;;;;;;2.60;1.50;;;15.00;54.00;;;;;;5076983;28;20229;-92
2021/04/29 06:16:03;;;;;;;5.10;1.50;;;14.70;54.20;;;;;;5081849;28;20192;-93
2021/04/29 06:18:29;;;;;;;1.10;1.00;;;14.50;54.90;;;;;;5081983;28;20251;-91
2021/04/29 06:20:56;;;;;;;5.72;1.50;;;14.60;55.90;;;;;;5076406;28;20201;-93
2021/04/29 06:23:23;;;;;;;5.57;1.48;;;15.00;55.90;;;;;;5069593;28;20768;-92
2021/04/29 06:25:49;;;;;;;3.72;1.42;;;15.30;51.70;;;;;;5063659;28;20560;-92
2021/04/29 06:28:16;;;;;;;4.57;1.30;;;15.50;51.80;;;;;;5078583;28;20224;-90
2021/04/29 06:30:42;;;;;;;4.13;1.60;;;15.70;49.90;;;;;;5071694;28;20284;-90
2021/04/29 06:33:10;;;;;;;2.60;1.30;;;15.70;51.80;;;;;;5072812;28;20311;-90
2021/04/29 06:35:36;;;;;;;5.07;1.70;;;15.70;49.10;;;;;;5071404;28;20585;-91
2021/04/29 06:38:03;;;;;;;4.95;1.65;;;15.50;50.40;;;;;;5074635;28;20609;-92
2021/04/29 06:40:43;;;;;;;7.70;1.27;;;15.40;51.70;;;;;;5079445;28;20211;-91
2021/04/29 06:43:13;;;;;;;3.40;1.50;;;15.30;51.60;;;;;;5077444;28;20563;-89
2021/04/29 06:45:41;;;;;;;5.75;1.58;;;15.10;51.50;;;;;;5074762;28;20225;-88
2021/04/29 06:50:52;;;;;;;6.65;1.70;;;14.80;51.20;;;;;;5068390;28;20271;-90
2021/04/29 06:53:19;;;;;;;10.27;2.00;;;14.70;51.10;;;;;;5078586;28;20296;-89
2021/04/29 06:55:46;;;;;;;8.27;1.60;;;14.50;52.30;;;;;;5078647;28;20201;-88
2021/04/29 06:58:25;;;;;;;3.35;1.50;;;14.40;53.80;;;;;;5077298;28;20224;-89
2021/04/29 07:00:51;;;;;;;4.00;1.60;;;14.50;51.50;;;;;;5078051;28;20660;-92
2021/04/29 07:03:18;;;;;;;2.72;1.55;;;14.40;52.90;;;;;;5070260;28;20225;-88
2021/04/29 07:05:45;;;;;;;5.15;1.65;;;14.50;53.40;;;;;;5079391;28;20199;-88
2021/04/29 07:08:14;;;;;;;5.32;1.90;;;14.40;54.30;;;;;;5085785;28;20228;-87
2021/04/29 07:10:41;;;;;;;3.97;1.60;;;14.70;52.10;;;;;;5074649;28;20753;-88
2021/04/29 07:13:15;;;;;;;2.25;1.65;;;14.80;51.20;;;;;;5065006;28;20220;-87
2021/04/29 07:15:44;;;;;;;5.28;1.80;;;14.80;52.30;;;;;;5073050;28;20197;-87
2021/04/29 07:18:32;;;;;;;3.45;1.77;;;14.80;51.20;;;;;;5066686;28;20225;-87
2021/04/29 07:21:01;;;;;;;15.50;2.38;;;14.70;51.40;;;;;;5072574;28;20292;-88
2021/04/29 07:23:28;;;;;;;11.88;1.92;;;14.60;52.50;;;;;;5077341;28;20325;-87
2021/04/29 07:26:33;;;;;;;12.25;2.58;;;14.30;54.40;;;;;;5083063;28;20198;-87
2021/04/29 07:29:01;;;;;;;9.95;2.38;;;14.40;53.40;;;;;;5483652;22;20420;-88
2021/04/29 07:34:48;;;;;;;2.63;1.70;;;14.20;54.60;;;;;;5070266;28;20213;-88
2021/04/29 07:37:22;;;;;;;2.22;1.70;;;14.30;54.60;;;;;;5077949;28;20201;-87
2021/04/29 07:39:48;;;;;;;3.10;1.73;;;14.20;53.90;;;;;;5079078;28;20216;-88
2021/04/29 07:42:14;;;;;;;4.07;2.05;;;14.30;53.20;;;;;;5070493;28;20201;-89
2021/04/29 07:44:42;;;;;;;3.80;2.10;;;14.20;54.30;;;;;;5067097;28;20255;-88
2021/04/29 07:47:08;;;;;;;3.72;2.15;;;14.10;53.30;;;;;;5072471;28;20203;-89
2021/04/29 07:49:35;;;;;;;3.60;2.00;;;13.90;53.70;;;;;;5073370;28;20376;-89
2021/04/29 07:52:01;;;;;;;2.67;1.90;;;13.90;53.20;;;;;;5077454;28;20221;-89
2021/04/29 07:54:27;;;;;;;2.35;1.73;;;13.80;54.10;;;;;;5080565;28;20738;-88
2021/04/29 07:56:54;;;;;;;6.28;2.47;;;13.60;54.60;;;;;;5076508;28;20213;-92
2021/04/29 07:59:23;;;;;;;4.90;1.98;;;13.70;55.80;;;;;;5075110;28;20272;-90
2021/04/29 08:02:09;;;;;;;4.00;1.98;;;13.80;55.80;;;;;;5074371;28;20656;-92
2021/04/29 08:04:35;;;;;;;3.67;2.30;;;13.90;54.90;;;;;;5077236;28;20233;-90
2021/04/29 08:07:19;;;;;;;1.90;1.65;;;14.00;55.30;;;;;;5074087;28;20202;-90
2021/04/29 08:10:05;;;;;;;4.82;2.00;;;14.20;53.30;;;;;;5085051;28;20251;-90
2021/04/29 08:12:32;;;;;;;5.25;2.38;;;14.00;53.00;;;;;;5085105;28;20209;-90
2021/04/29 08:15:20;;;;;;;4.32;1.80;;;14.00;54.30;;;;;;5088895;28;20219;-92
2021/04/29 08:17:47;;;;;;;2.75;2.25;;;14.20;52.40;;;;;;5083590;28;20308;-91
2021/04/29 08:23:51;;;;;;;4.45;2.03;;;14.20;50.60;;;;;;5087318;28;20748;-89
2021/04/29 08:26:17;;;;;;;3.38;1.80;;;14.40;50.80;;;;;;5091254;28;20260;-90
2021/04/29 08:38:54;;;;;;;3.78;2.33;;;14.60;50.90;;;;;;4983321;28;20580;-90
2021/04/29 08:41:21;;;;;;;5.03;2.50;;;14.80;47.90;;;;;;5082250;28;20621;-88
2021/04/29 08:44:05;;;;;;;5.70;2.25;;;14.70;45.70;;;;;;5079771;28;20225;-87
2021/04/29 08:46:31;;;;;;;8.85;3.10;;;14.80;45.80;;;;;;5085332;28;20714;-91
2021/04/29 08:49:02;;;;;;;3.58;2.55;;;14.70;47.00;;;;;;5081681;28;20217;-91
2021/04/29 08:51:32;;;;;;;4.45;2.65;;;14.80;48.90;;;;;;5089100;28;20311;-90
2021/04/29 08:54:15;;;;;;;3.08;2.30;;;14.60;46.70;;;;;;5072884;28;20232;-92
2021/04/29 08:56:50;;;;;;;4.63;2.47;;;14.70;48.90;;;;;;5084426;28;20219;-89
2021/04/29 08:59:17;;;;;;;5.03;2.55;;;14.60;47.70;;;;;;5085488;28;20327;-88
2021/04/29 09:01:52;;;;;;;6.65;2.95;;;14.40;49.30;;;;;;5110764;28;20196;-91
2021/04/29 09:04:21;;;;;;;6.40;2.53;;;14.40;49.30;;;;;;5081029;28;20204;-92
2021/04/29 09:07:22;;;;;;;7.20;3.03;;;14.80;49.00;;;;;;5068462;28;20202;-88
2021/04/29 09:14:15;;;;;;;3.80;2.60;;;15.30;45.60;;;;;;5068602;28;20194;-88
2021/04/29 09:17:23;;;;;;;4.95;2.60;;;15.40;43.60;;;;;;5065460;28;20198;-87
2021/04/29 09:33:33;;;;;;;6.45;3.00;;;15.20;46.30;;;;;;5085329;28;20196;-91
2021/04/29 09:43:16;;;;;;;5.28;3.03;;;15.30;43.10;;;;;;5081007;28;20196;-92
2021/04/29 09:45:43;;;;;;;6.07;3.42;;;15.60;43.80;;;;;;5072364;28;20201;-90
2021/04/29 09:48:11;;;;;;;5.78;2.92;;;15.80;43.40;;;;;;5072487;28;20229;-91
2021/04/29 09:50:51;;;;;;;8.70;3.30;;;16.10;41.70;;;;;;5077851;28;20703;-89
2021/04/29 09:53:18;;;;;;;7.32;3.13;;;16.20;39.80;;;;;;5062311;28;20271;-89
2021/04/29 09:56:20;;;;;;;5.35;3.35;;;16.20;39.50;;;;;;5078720;28;20628;-89
2021/04/29 09:58:48;;;;;;;4.43;3.20;;;16.30;38.60;;;;;;5077177;28;20233;-90
2021/04/29 10:01:15;;;;;;;6.50;3.40;;;16.30;39.00;;;;;;5075052;28;20200;-88
2021/04/29 10:03:43;;;;;;;7.90;3.70;;;16.50;40.30;;;;;;5078085;28;20236;-88
2021/04/29 10:06:29;;;;;;;6.43;3.92;;;16.50;39.30;;;;;;5071663;28;20190;-90
2021/04/29 10:09:22;;;;;;;6.53;3.40;;;16.50;38.50;;;;;;5062408;28;20202;-89
2021/04/29 10:12:25;;;;;;;6.40;3.33;;;16.60;40.20;;;;;;5062844;28;20212;-91
2021/04/29 10:14:53;;;;;;;5.90;3.45;;;16.80;37.80;;;;;;5075753;28;20216;-89
2021/04/29 10:17:23;;;;;;;4.53;3.42;;;16.90;37.70;;;;;;5075584;28;20244;-89
2021/04/29 10:19:53;;;;;;;7.20;3.75;;;16.70;37.30;;;;;;5076002;28;20213;-90
2021/04/29 10:22:24;;;;;;;6.03;4.30;;;16.60;39.20;;;;;;5077117;28;20274;-88
2021/04/29 10:24:51;;;;;;;8.10;4.00;;;16.70;38.00;;;;;;5078055;28;20201;-89
2021/04/29 10:37:58;;;;;;;4.80;4.30;;;16.80;37.20;;;;;;5864526;22;20227;-89
2021/04/29 10:40:38;;;;;;;5.15;3.70;;;16.70;37.40;;;;;;5076524;28;20284;-90
2021/04/29 10:43:05;;;;;;;6.53;3.63;;;16.90;38.50;;;;;;5071871;28;20212;-88
2021/04/29 10:45:32;;;;;;;6.95;3.95;;;16.80;38.20;;;;;;5078289;28;20209;-87
2021/04/29 10:48:06;;;;;;;4.88;4.15;;;17.10;38.10;;;;;;5080635;28;20231;-85
2021/04/29 10:50:42;;;;;;;6.93;4.35;;;17.50;36.40;;;;;;5079522;28;20217;-86
2021/04/29 10:53:10;;;;;;;9.27;4.20;;;17.50;36.10;;;;;;5073061;28;20233;-87
2021/04/29 10:55:37;;;;;;;7.90;3.70;;;17.50;35.60;;;;;;5077624;28;20201;-87
2021/04/29 10:58:05;;;;;;;9.05;4.10;;;17.50;35.50;;;;;;5080342;28;20236;-87
2021/04/29 11:00:33;;;;;;;6.00;4.25;;;17.50;35.20;;;;;;5067775;28;20202;-89
2021/04/29 11:03:01;;;;;;;7.40;4.15;;;17.60;36.70;;;;;;5075135;28;20241;-88
2021/04/29 11:05:29;;;;;;;6.55;4.30;;;17.50;36.60;;;;;;5066304;28;20194;-89
2021/04/29 11:08:01;;;;;;;5.10;4.05;;;17.50;35.20;;;;;;5078420;28;20225;-85
2021/04/29 11:10:33;;;;;;;8.13;4.40;;;17.50;36.50;;;;;;5074783;28;20217;-92
2021/04/29 11:13:00;;;;;;;6.72;4.00;;;17.40;36.30;;;;;;5075152;28;20217;-93
2021/04/29 11:15:29;;;;;;;5.65;3.92;;;17.30;36.30;;;;;;5071679;28;20284;-91
2021/04/29 11:18:08;;;;;;;8.48;3.95;;;17.50;36.90;;;;;;5065647;28;20229;-92
2021/04/29 11:20:45;;;;;;;8.40;4.00;;;17.50;34.90;;;;;;5074144;28;20676;-87
2021/04/29 11:23:12;;;;;;;5.40;3.75;;;17.70;36.20;;;;;;5071318;28;20293;-89
2021/04/29 11:25:40;;;;;;;7.43;4.15;;;17.80;35.70;;;;;;5078261;28;20212;-88
2021/04/29 11:28:07;;;;;;;14.55;4.50;;;18.00;35.80;;;;;;5069748;28;20221;-89
2021/04/29 11:30:34;;;;;;;6.00;4.60;;;18.10;34.90;;;;;;5066157;28;20237;-90
2021/04/29 11:33:02;;;;;;;7.43;4.55;;;18.30;32.30;;;;;;5074607;28;20232;-89
2021/04/29 11:35:29;;;;;;;9.02;4.50;;;18.60;34.30;;;;;;5063049;28;20218;-89
2021/04/29 11:37:56;;;;;;;4.88;3.90;;;18.50;33.40;;;;;;5079714;28;20258;-89
2021/04/29 11:40:25;;;;;;;5.10;4.20;;;18.40;30.70;;;;;;5077300;28;20200;-90
2021/04/29 11:42:55;;;;;;;8.27;3.80;;;18.60;34.20;;;;;;5082034;28;20766;-89
2021/04/29 11:45:23;;;;;;;6.35;3.97;;;19.00;31.20;;;;;;5081364;28;20212;-89
2021/04/29 11:47:55;;;;;;;4.28;3.58;;;19.00;31.20;;;;;;5077025;28;20237;-89
2021/04/29 11:50:23;;;;;;;9.45;3.75;;;19.20;31.40;;;;;;5067731;28;20225;-89
2021/04/29 11:52:50;;;;;;;6.35;3.80;;;19.50;31.60;;;;;;5077759;28;20617;-89
2021/04/29 11:55:23;;;;;;;7.90;4.20;;;19.70;31.80;;;;;;5082346;28;20197;-89
2021/04/29 11:57:50;;;;;;;5.68;3.85;;;19.40;30.60;;;;;;5075393;28;20679;-89
2021/04/29 12:00:29;;;;;;;5.38;3.72;;;19.40;31.60;;;;;;5071055;28;20203;-89
2021/04/29 12:02:57;;;;;;;12.00;3.72;;;19.50;31.60;;;;;;5079918;28;20216;-89
2021/04/29 12:05:34;;;;;;;7.43;3.72;;;19.00;28.80;;;;;;5087987;28;20204;-89
2021/04/29 12:08:00;;;;;;;5.57;3.50;;;18.80;31.00;;;;;;5093186;28;20243;-89
2021/04/29 12:10:40;;;;;;;9.77;3.35;;;18.70;31.00;;;;;;5075565;28;20229;-89
2021/04/29 12:13:06;;;;;;;5.45;3.10;;;18.50;30.80;;;;;;5078864;28;20274;-89
2021/04/29 12:15:34;;;;;;;7.00;3.75;;;18.80;31.10;;;;;;5080586;28;20272;-89
2021/04/29 12:18:00;;;;;;;4.90;3.15;;;19.00;31.20;;;;;;5072043;28;20220;-90
2021/04/29 12:20:48;;;;;;;8.88;3.35;;;19.10;30.20;;;;;;5079918;28;20205;-86
2021/04/29 12:23:15;;;;;;;7.47;3.45;;;19.00;29.40;;;;;;5080009;28;20222;-86
2021/04/29 12:25:42;;;;;;;9.13;3.05;;;19.10;29.50;;;;;;5063388;28;20202;-86
2021/04/29 12:30:45;;;;;;;8.45;3.13;;;18.70;29.40;;;;;;5607014;22;20225;-91
2021/04/29 12:33:19;;;;;;;6.15;2.97;;;18.60;30.90;;;;;;5080922;28;20622;-90
2021/04/29 12:35:47;;;;;;;5.22;3.03;;;18.40;30.70;;;;;;5077947;28;20208;-90
2021/04/29 12:38:13;;;;;;;4.82;3.35;;;18.00;30.40;;;;;;5078858;28;20616;-88
2021/04/29 12:40:40;;;;;;;8.80;3.20;;;17.70;30.20;;;;;;5081018;28;20225;-91
2021/04/29 12:43:24;;;;;;;11.25;3.72;;;17.60;31.60;;;;;;5079373;28;20225;-89
2021/04/29 12:45:54;;;;;;;5.57;2.92;;;17.50;31.00;;;;;;5083337;28;20219;-91
2021/04/29 12:48:30;;;;;;;4.93;2.60;;;17.20;32.20;;;;;;5082124;28;20240;-90
2021/04/29 12:51:05;;;;;;;4.20;2.55;;;17.20;33.30;;;;;;5082418;28;20216;-91
2021/04/29 12:53:33;;;;;;;4.70;2.70;;;17.30;32.40;;;;;;5076400;28;20235;-90
2021/04/29 12:56:06;;;;;;;7.60;3.00;;;17.20;32.00;;;;;;5078037;28;20197;-90
2021/04/29 12:58:39;;;;;;;4.85;2.95;;;17.20;32.60;;;;;;5075412;28;20228;-90
2021/04/29 13:01:12;;;;;;;8.00;3.10;;;17.30;34.80;;;;;;5079562;28;20200;-90
2021/04/29 13:03:47;;;;;;;9.90;3.28;;;17.40;33.00;;;;;;5079554;28;20263;-90
2021/04/29 13:06:17;;;;;;;8.57;3.10;;;17.20;34.10;;;;;;5081000;28;20204;-91
2021/04/29 13:08:55;;;;;;;5.45;2.53;;;17.40;33.80;;;;;;5084604;28;20232;-89
2021/04/29 13:11:34;;;;;;;4.50;2.58;;;17.50;32.30;;;;;;5086482;28;20223;-89
2021/04/29 13:14:06;;;;;;;4.07;2.65;;;17.10;32.10;;;;;;5080618;28;20221;-91
2021/04/29 13:16:35;;;;;;;6.57;2.53;;;17.00;33.70;;;;;;5076951;28;20472;-90
2021/04/29 13:19:02;;;;;;;8.40;2.72;;;17.00;32.90;;;;;;5075779;28;20351;-90
2021/04/29 13:21:29;;;;;;;5.57;2.47;;;16.80;33.20;;;;;;5079725;28;20644;-91
2021/04/29 13:23:56;;;;;;;6.82;2.65;;;16.80;34.00;;;;;;5074403;28;20756;-90
2021/04/29 13:26:23;;;;;;;5.53;2.75;;;16.70;34.60;;;;;;5074186;28;20718;-90
2021/04/29 13:28:50;;;;;;;4.35;2.95;;;16.70;35.10;;;;;;5066493;28;20639;-89
2021/04/29 13:31:18;;;;;;;4.93;2.72;;;16.60;34.20;;;;;;5052453;28;20228;-89
2021/04/29 13:33:45;;;;;;;4.22;2.70;;;16.50;33.60;;;;;;5054020;28;20565;-89
2021/04/29 13:36:12;;;;;;;6.85;2.80;;;16.40;33.60;;;;;;5057472;28;20212;-88
2021/04/29 13:38:38;;;;;;;5.32;2.53;;;16.30;34.40;;;;;;5056578;28;20282;-87
2021/04/29 13:41:05;;;;;;;9.13;3.38;;;16.40;34.50;;;;;;5049526;28;20234;-86
2021/04/29 13:43:58;;;;;;;5.72;2.90;;;16.30;35.90;;;;;;5052722;28;20225;-86
2021/04/29 13:46:25;;;;;;;6.80;2.85;;;16.30;35.60;;;;;;5061522;28;20202;-87
2021/04/29 13:48:52;;;;;;;7.03;2.78;;;16.10;36.70;;;;;;5060846;28;20243;-89
2021/04/29 13:51:18;;;;;;;5.80;2.88;;;16.10;36.50;;;;;;5058087;28;20210;-88
2021/04/29 13:53:46;;;;;;;7.25;3.38;;;16.10;35.20;;;;;;5076085;28;20572;-88
2021/04/29 13:56:13;;;;;;;9.30;3.25;;;15.90;35.20;;;;;;5066835;28;20277;-90
2021/04/29 13:58:39;;;;;;;4.85;3.13;;;15.80;36.70;;;;;;5053652;28;20292;-88
2021/04/29 14:01:10;;;;;;;4.95;3.25;;;15.80;37.30;;;;;;5064354;28;20598;-88
2021/04/29 14:03:37;;;;;;;5.82;3.00;;;15.70;37.50;;;;;;5050495;28;20289;-89
2021/04/29 14:06:16;;;;;;;7.03;2.90;;;15.60;38.40;;;;;;5067387;28;20209;-87
2021/04/29 14:08:43;;;;;;;7.80;3.40;;;15.50;38.80;;;;;;5056028;28;20239;-90
2021/04/29 14:11:10;;;;;;;4.93;3.30;;;15.40;39.30;;;;;;5061891;28;20289;-90
2021/04/29 14:13:38;;;;;;;7.18;3.17;;;15.40;40.70;;;;;;5063145;28;20230;-89
2021/04/29 14:16:14;;;;;;;8.95;3.13;;;15.40;42.50;;;;;;5061978;28;20206;-87
2021/04/29 14:18:40;;;;;;;6.55;3.22;;;15.40;41.70;;;;;;5056429;28;20683;-87
2021/04/29 14:21:07;;;;;;;6.32;4.57;;;15.50;40.70;;;;;;5069582;28;20648;-89
2021/04/29 14:48:16;;;;;;;6.50;3.75;;;14.70;47.90;;;;;;5771029;22;20220;-87
2021/04/29 14:54:19;;;;;;;8.52;3.85;;;14.50;50.90;;;;;;5061432;28;20732;-88
2021/04/29 14:57:28;;;;;;;11.30;4.18;;;14.40;50.80;;;;;;5060937;28;20198;-88
2021/04/29 15:03:40;;;;;;;8.52;6.97;;;14.70;51.10;;;;;;5069634;28;20629;-87
2021/04/29 15:09:31;;;;;;;4.28;3.42;;;14.70;51.10;;;;;;5085216;28;20730;-86
2021/04/29 15:12:26;;;;;;;5.47;4.03;;;14.80;51.20;;;;;;5085345;28;20225;-85
2021/04/29 15:15:04;;;;;;;7.47;3.47;;;14.70;51.70;;;;;;5077586;28;20209;-88
2021/04/29 15:17:30;;;;;;;7.97;4.57;;;14.70;51.10;;;;;;5085859;28;20197;-87
2021/04/29 15:23:20;;;;;;;4.60;3.45;;;14.90;56.40;;;;;;5089916;28;20231;-87
2021/04/29 15:25:52;;;;;;;4.90;4.07;;;14.80;53.30;;;;;;5089426;28;20261;-92
2021/04/29 15:28:18;;;;;;;6.15;5.32;;;14.80;56.40;;;;;;5075017;28;20238;-87
2021/04/29 15:30:45;;;;;;;6.93;3.60;;;14.80;55.70;;;;;;5079155;28;20224;-86
2021/04/29 15:33:12;;;;;;;5.43;3.50;;;14.70;56.10;;;;;;5086805;28;20311;-87
2021/04/29 15:35:55;;;;;;;7.15;3.95;;;14.80;55.20;;;;;;5086924;28;20299;-87
2021/04/29 15:38:22;;;;;;;6.47;3.47;;;15.20;51.50;;;;;;5090236;28;20196;-87
2021/04/29 15:40:49;;;;;;;7.50;3.20;;;15.50;51.80;;;;;;5078427;28;20207;-89
2021/04/29 15:43:16;;;;;;;6.32;3.03;;;15.50;47.90;;;;;;5087157;28;20221;-89
2021/04/29 15:45:42;;;;;;;11.18;5.22;;;15.60;48.40;;;;;;5078064;28;20193;-87
2021/04/29 15:48:08;;;;;;;15.23;8.00;;;15.90;50.90;;;;;;5084414;28;20327;-88
2021/04/29 15:50:35;;;;;;;14.98;8.65;;;15.90;52.20;;;;;;5078354;28;20205;-90
2021/04/29 15:53:02;;;;;;;10.85;7.40;;;16.00;51.90;;;;;;5092988;28;20232;-88
2021/04/29 15:55:31;;;;;;;5.00;3.97;;;15.80;52.10;;;;;;5099116;28;20192;-87
2021/04/29 15:57:57;;;;;;;7.78;4.35;;;15.70;52.00;;;;;;5089272;28;20236;-87
2021/04/29 16:00:23;;;;;;;9.13;4.32;;;15.90;51.20;;;;;;5108628;28;20216;-87
2021/04/29 16:02:50;;;;;;;6.78;4.25;;;15.80;50.20;;;;;;5095041;28;20228;-88
2021/04/29 16:05:30;;;;;;;5.57;4.10;;;15.90;52.20;;;;;;5075454;28;20202;-88
2021/04/29 16:07:56;;;;;;;11.50;3.67;;;15.80;51.30;;;;;;5091471;28;20238;-87
2021/04/29 16:10:22;;;;;;;4.82;3.03;;;15.80;52.10;;;;;;5083638;28;20199;-89
2021/04/29 16:12:50;;;;;;;5.28;3.03;;;15.70;50.00;;;;;;5092990;28;20248;-84
2021/04/29 16:15:16;;;;;;;6.38;2.92;;;15.50;51.80;;;;;;5075526;28;20205;-88
2021/04/29 16:17:43;;;;;;;6.70;3.33;;;15.30;50.30;;;;;;5097298;28;20241;-87
2021/04/29 16:20:10;;;;;;;6.10;3.28;;;15.10;48.00;;;;;;5095934;28;20220;-86
2021/04/29 16:22:42;;;;;;;3.67;3.05;;;14.90;49.80;;;;;;5099453;28;20246;-88
2021/04/29 16:25:10;;;;;;;5.45;2.80;;;14.80;52.30;;;;;;5108232;28;20226;-88
2021/04/29 16:27:36;;;;;;;3.65;3.00;;;14.70;50.20;;;;;;5083884;28;20205;-89
2021/04/29 16:34:11;;;;;;;4.13;2.83;;;14.60;51.00;;;;;;5066133;28;20233;-90
2021/04/29 16:37:28;;;;;;;5.05;2.55;;;14.50;50.90;;;;;;5066214;28;20221;-91
2021/04/29 16:39:56;;;;;;;3.70;2.90;;;14.40;50.80;;;;;;5081671;28;20217;-90
2021/04/29 16:42:23;;;;;;;5.78;2.70;;;14.30;50.70;;;;;;5096202;28;20198;-89
2021/04/29 16:44:50;;;;;;;6.88;3.10;;;14.30;50.70;;;;;;5084051;28;20362;-89
2021/04/29 16:47:16;;;;;;;5.68;3.22;;;14.40;53.30;;;;;;5092255;28;20196;-89
2021/04/29 16:49:43;;;;;;;7.53;3.10;;;14.60;51.00;;;;;;5091458;28;20236;-90
2021/04/29 16:52:35;;;;;;;4.95;3.13;;;14.70;48.40;;;;;;5086390;28;20296;-87
2021/04/29 16:55:07;;;;;;;5.40;3.03;;;14.70;49.30;;;;;;5076067;28;20217;-87
2021/04/29 16:57:33;;;;;;;6.95;2.80;;;14.80;47.80;;;;;;5085874;28;20652;-86
2021/04/29 17:03:54;;;;;;;6.72;2.65;;;14.80;46.70;;;;;;5087435;28;20185;-86
2021/04/29 17:06:20;;;;;;;3.70;2.70;;;14.70;48.60;;;;;;5086697;28;20207;-87
2021/04/29 17:08:46;;;;;;;5.53;3.08;;;14.60;48.00;;;;;;5087480;28;20564;-86
2021/04/29 17:11:16;;;;;;;6.15;2.90;;;14.60;48.10;;;;;;5085482;28;20221;-85
2021/04/29 17:13:43;;;;;;;4.00;2.45;;;14.60;48.00;;;;;;5077825;28;20237;-83
2021/04/29 17:16:09;;;;;;;4.25;3.00;;;14.50;48.20;;;;;;5080432;28;20197;-89
2021/04/29 17:18:44;;;;;;;5.38;2.67;;;14.60;49.50;;;;;;5086092;28;20225;-90
2021/04/29 17:21:12;;;;;;;7.10;2.65;;;14.60;49.30;;;;;;5086422;28;20260;-86
2021/04/29 17:23:42;;;;;;;10.18;2.67;;;14.50;49.30;;;;;;5084172;28;20304;-90
2021/04/29 17:26:09;;;;;;;2.97;2.38;;;14.40;50.80;;;;;;5066923;28;20186;-87
2021/04/29 17:31:19;;;;;;;7.20;2.50;;;14.30;51.00;;;;;;5118107;22;20232;-89
2021/04/29 17:33:48;;;;;;;5.05;2.50;;;14.20;50.60;;;;;;5090598;28;20197;-89
2021/04/29 18:14:25;;;;;;;11.23;2.83;;;13.70;55.30;;;;;;5091142;27;20229;-88
2021/04/29 18:16:51;;;;;;;5.72;2.72;;;13.60;57.40;;;;;;5080288;28;20209;-89
2021/04/29 18:19:19;;;;;;;6.53;3.05;;;13.60;57.20;;;;;;5070103;28;20258;-89
2021/04/29 18:22:39;;;;;;;6.20;2.58;;;13.50;59.00;;;;;;5066263;28;20194;-88
2021/04/29 18:25:17;;;;;;;6.15;2.78;;;13.50;58.60;;;;;;5065601;28;20194;-89
2021/04/29 18:33:48;;;;;;;4.80;3.28;;;13.50;60.70;;;;;;5073976;28;20219;-87
2021/04/29 18:36:14;;;;;;;4.10;2.95;;;13.50;60.70;;;;;;5086170;28;20221;-87
2021/04/29 18:39:38;;;;;;;7.63;2.85;;;13.40;60.70;;;;;;5088897;28;20199;-87
2021/04/29 18:42:05;;;;;;;5.45;2.70;;;13.40;61.20;;;;;;5084142;28;20201;-86
2021/04/29 18:44:32;;;;;;;8.20;3.00;;;13.30;60.40;;;;;;5088192;28;20201;-86
2021/04/29 18:47:28;;;;;;;5.18;2.80;;;13.30;59.50;;;;;;5084259;28;20770;-86
2021/04/29 18:50:17;;;;;;;3.40;2.60;;;13.30;58.70;;;;;;5082409;28;20566;-86
2021/04/29 18:52:45;;;;;;;4.50;3.42;;;13.20;59.10;;;;;;5086175;28;20209;-85
2021/04/29 18:55:13;;;;;;;5.28;2.58;;;13.10;59.30;;;;;;5080863;28;20280;-88
2021/04/29 18:58:15;;;;;;;6.75;3.33;;;13.10;60.80;;;;;;5082279;28;20216;-87
2021/04/29 19:01:31;;;;;;;3.42;2.80;;;13.10;63.50;;;;;;5080282;28;20209;-87
2021/04/29 19:04:04;;;;;;;5.22;2.80;;;13.00;63.20;;;;;;5066980;28;20562;-91
2021/04/29 19:13:47;;;;;;;5.47;3.05;;;12.70;69.60;;;;;;5066359;28;20285;-91
2021/04/29 19:19:39;;;;;;;11.27;7.95;;;12.50;75.50;;;;;;5078500;28;20218;-91
2021/04/29 19:22:30;;;;;;;5.40;3.60;;;12.40;79.20;;;;;;5086615;28;20216;-91
2021/04/29 19:41:21;;;;;;;6.80;4.13;;;11.80;88.80;;;;;;5583064;22;20241;-86
2021/04/29 19:44:31;;;;;;;8.98;4.45;;;11.80;89.40;;;;;;5066036;28;20576;-86
2021/04/29 19:51:06;;;;;;;4.70;4.18;;;11.70;90.70;;;;;;5061533;28;20557;-86
2021/04/29 19:53:33;;;;;;;5.68;4.45;;;11.60;90.60;;;;;;5069052;28;20229;-85
2021/04/29 20:10:19;;;;;;;5.78;4.30;;;11.50;91.80;;;;;;5089719;28;20603;-86
2021/04/29 20:16:39;;;;;;;6.82;5.00;;;11.50;91.50;;;;;;5084416;28;20183;-85
2021/04/29 20:22:28;;;;;;;7.03;5.20;;;11.40;92.50;;;;;;5084044;28;20261;-86
2021/04/29 20:24:54;;;;;;;6.05;5.25;;;11.30;93.30;;;;;;5080779;28;20197;-86
2021/04/29 20:27:22;;;;;;;9.15;4.72;;;11.30;93.80;;;;;;5084318;28;20613;-85
2021/04/29 20:40:19;;;;;;;4.82;4.28;;;11.10;94.50;;;;;;5401190;22;20262;-86
2021/04/29 20:42:49;;;;;;;7.53;5.45;;;11.00;94.90;;;;;;5089140;27;20189;-86
2021/04/29 20:45:27;;;;;;;7.35;4.80;;;11.00;95.40;;;;;;5084530;28;20201;-86
2021/04/29 20:48:25;;;;;;;6.47;5.22;;;11.00;95.90;;;;;;5085184;27;20231;-86
2021/04/29 20:54:43;;;;;;;7.45;5.25;;;11.00;96.00;;;;;;5083703;28;20247;-87
2021/04/29 20:57:38;;;;;;;43.45;30.60;;;11.00;95.90;;;;;;5083642;28;20212;-86
2021/04/29 21:00:16;;;;;;;35.97;25.08;;;11.30;97.20;;;;;;5080401;28;20265;-85
2021/04/29 21:13:18;;;;;;;10.13;6.82;;;11.50;96.10;;;;;;5088499;27;20226;-86
2021/04/29 21:22:34;;;;;;;9.55;7.32;;;11.10;96.00;;;;;;5057459;28;20201;-85
2021/04/29 21:25:00;;;;;;;16.13;10.38;;;11.00;96.50;;;;;;5066080;28;20198;-85
2021/04/29 22:02:55;;;;;;;10.18;7.00;;;10.60;98.50;;;;;;5062869;28;20193;-85
2021/04/29 22:08:51;;;;;;;8.52;6.00;;;10.70;98.40;;;;;;5061814;28;20282;-85
2021/04/29 22:11:37;;;;;;;10.02;7.55;;;10.70;98.40;;;;;;5063975;28;20361;-85
2021/04/29 22:14:04;;;;;;;8.50;7.07;;;10.70;98.30;;;;;;5062122;28;20234;-85
2021/04/29 22:16:31;;;;;;;7.25;6.47;;;10.70;98.40;;;;;;5062400;28;20533;-85
2021/04/29 22:18:58;;;;;;;7.93;6.70;;;10.70;98.20;;;;;;5062844;28;20218;-85
2021/04/29 22:21:24;;;;;;;9.27;7.00;;;10.60;98.40;;;;;;5061448;28;20231;-85
2021/04/29 22:24:33;;;;;;;23.27;17.40;;;10.50;98.70;;;;;;5062171;28;20233;-85
2021/04/29 22:27:29;;;;;;;12.88;8.43;;;10.60;99.50;;;;;;5062196;28;20527;-85
2021/04/29 22:30:09;;;;;;;9.63;7.78;;;10.60;99.60;;;;;;5731100;22;20228;-85
2021/04/29 22:32:35;;;;;;;12.27;9.48;;;10.60;99.70;;;;;;5081034;28;20232;-85
2021/04/29 22:35:04;;;;;;;12.95;9.73;;;10.70;99.40;;;;;;5084888;28;20193;-85
2021/04/29 22:48:10;;;;;;;8.98;7.55;;;10.80;98.30;;;;;;5085125;28;20184;-85
2021/04/29 22:54:13;;;;;;;8.68;6.45;;;10.70;98.10;;;;;;5085953;28;20195;-85
2021/04/29 22:57:29;;;;;;;10.77;7.30;;;10.80;98.30;;;;;;5081670;28;20195;-85
2021/04/29 23:03:58;;;;;;;11.23;7.82;;;10.80;97.70;;;;;;5086015;28;20189;-85
2021/04/29 23:23:56;;;;;;;7.75;6.47;;;10.70;98.50;;;;;;5084992;28;20181;-85
2021/04/29 23:42:34;;;;;;;11.82;8.50;;;10.70;98.80;;;;;;5084158;28;20217;-85
2021/04/29 23:45:01;;;;;;;11.18;8.80;;;10.70;98.50;;;;;;5089256;28;20201;-85
2021/04/29 23:51:37;;;;;;;11.88;9.80;;;10.60;98.20;;;;;;5083726;28;20185;-85
2021/04/29 23:54:04;;;;;;;8.88;6.20;;;10.70;98.40;;;;;;5089644;28;20233;-85
2021/04/29 23:56:31;;;;;;;12.35;10.80;;;10.60;98.40;;;;;;5085166;28;20189;-85
